FCG306 SBGR-SBJV
Flight info
| Callsign | FCG306 |
|---|---|
| Flight time | N/A |
| Altitude | 28000 |
| Route | SOVSI UZ85 RAXIT |
| Aircraft | B738/M-SDE2E3FGHIRWXY/LB1 |
Departure
| Time | 2026-05-07 18:19 |
|---|---|
| Airport | São Paulo/Guarulhos–Governor André Franco Montoro International Airport (SBGR) |
Arrival
| Time | N/A |
|---|---|
| Airport | Lauro Carneiro de Loyola Airport (SBJV) |
| Time | Latitude | Longitude | Altitude | Speed | Heading |
|---|---|---|---|---|---|
| 2026-05-07 18:04 | -23.43029 | -46.48852 | 2466 ft | 0 kts | 257° |
| 2026-05-07 18:11 | -23.43026 | -46.48843 | 2466 ft | 4 kts | 256° |
| 2026-05-07 18:11 | -23.43019 | -46.48815 | 2462 ft | 4 kts | 243° |
| 2026-05-07 18:12 | -23.43003 | -46.48793 | 2467 ft | 4 kts | 211° |
| 2026-05-07 18:12 | -23.42982 | -46.48784 | 2460 ft | 1 kts | 186° |
| 2026-05-07 18:12 | -23.42978 | -46.48783 | 2464 ft | 0 kts | 186° |
| 2026-05-07 18:15 | -23.42979 | -46.48783 | 2465 ft | 2 kts | 186° |
| 2026-05-07 18:15 | -23.43016 | -46.48788 | 2460 ft | 8 kts | 186° |
| 2026-05-07 18:15 | -23.43074 | -46.48794 | 2460 ft | 8 kts | 186° |
| 2026-05-07 18:15 | -23.43131 | -46.48797 | 2462 ft | 8 kts | 172° |
| 2026-05-07 18:16 | -23.43166 | -46.48756 | 2462 ft | 8 kts | 102° |
| 2026-05-07 18:16 | -23.43173 | -46.48696 | 2462 ft | 9 kts | 96° |
| 2026-05-07 18:16 | -23.43180 | -46.48618 | 2460 ft | 11 kts | 95° |
| 2026-05-07 18:16 | -23.43186 | -46.48537 | 2460 ft | 11 kts | 95° |
| 2026-05-07 18:17 | -23.43193 | -46.48447 | 2460 ft | 13 kts | 95° |
| 2026-05-07 18:17 | -23.43251 | -46.48382 | 2460 ft | 13 kts | 163° |
| 2026-05-07 18:17 | -23.43336 | -46.48355 | 2463 ft | 13 kts | 163° |
| 2026-05-07 18:17 | -23.43408 | -46.48330 | 2461 ft | 7 kts | 154° |
| 2026-05-07 18:18 | -23.43422 | -46.48308 | 2462 ft | 3 kts | 78° |
| 2026-05-07 18:18 | -23.43416 | -46.48282 | 2459 ft | 11 kts | 75° |
| 2026-05-07 18:18 | -23.43321 | -46.47940 | 2462 ft | 83 kts | 73° |
| 2026-05-07 18:18 | -23.43094 | -46.47099 | 2465 ft | 145 kts | 73° |
| 2026-05-07 18:19 | -23.42769 | -46.45866 | 2555 ft | 188 kts | 72° |
| 2026-05-07 18:19 | -23.42405 | -46.44454 | 3295 ft | 198 kts | 69° |
| 2026-05-07 18:19 | -23.41990 | -46.43006 | 4068 ft | 201 kts | 68° |
| 2026-05-07 18:19 | -23.41559 | -46.41589 | 5034 ft | 191 kts | 67° |
| 2026-05-07 18:20 | -23.41215 | -46.40282 | 6116 ft | 175 kts | 69° |
| 2026-05-07 18:20 | -23.40842 | -46.38966 | 6659 ft | 195 kts | 66° |
| 2026-05-07 18:20 | -23.40370 | -46.37474 | 6896 ft | 222 kts | 68° |
| 2026-05-07 18:20 | -23.40258 | -46.35688 | 7091 ft | 256 kts | 94° |
| 2026-05-07 18:21 | -23.40687 | -46.33687 | 7326 ft | 288 kts | 105° |
| 2026-05-07 18:21 | -23.41387 | -46.31609 | 8101 ft | 294 kts | 107° |
| 2026-05-07 18:21 | -23.42114 | -46.29506 | 8705 ft | 297 kts | 107° |
| 2026-05-07 18:21 | -23.42918 | -46.27434 | 8981 ft | 301 kts | 119° |
| 2026-05-07 18:22 | -23.44402 | -46.25798 | 9015 ft | 310 kts | 148° |
| 2026-05-07 18:22 | -23.45735 | -46.25215 | 9092 ft | 315 kts | 169° |
| 2026-05-07 18:22 | -23.48659 | -46.25321 | 10192 ft | 315 kts | 192° |
| 2026-05-07 18:22 | -23.50853 | -46.25795 | 10765 ft | 330 kts | 192° |
| 2026-05-07 18:23 | -23.53171 | -46.26429 | 10929 ft | 356 kts | 204° |
| 2026-05-07 18:23 | -23.55197 | -46.27965 | 11333 ft | 366 kts | 230° |
| 2026-05-07 18:23 | -23.56510 | -46.30320 | 11993 ft | 366 kts | 253° |
| 2026-05-07 18:23 | -23.57134 | -46.33010 | 12696 ft | 369 kts | 260° |
| 2026-05-07 18:24 | -23.57651 | -46.35776 | 13306 ft | 376 kts | 261° |
| 2026-05-07 18:24 | -23.58164 | -46.38598 | 13892 ft | 383 kts | 260° |
| 2026-05-07 18:24 | -23.58696 | -46.41454 | 14542 ft | 384 kts | 260° |
| 2026-05-07 18:24 | -23.59244 | -46.44301 | 15232 ft | 385 kts | 259° |
| 2026-05-07 18:25 | -23.59806 | -46.47162 | 15799 ft | 384 kts | 259° |
| 2026-05-07 18:25 | -23.60375 | -46.50029 | 15992 ft | 388 kts | 260° |
| 2026-05-07 18:25 | -23.60939 | -46.52925 | 16062 ft | 392 kts | 261° |
| 2026-05-07 18:25 | -23.61388 | -46.55875 | 16642 ft | 394 kts | 263° |
| 2026-05-07 18:26 | -23.61794 | -46.58829 | 17367 ft | 394 kts | 264° |
| 2026-05-07 18:26 | -23.62205 | -46.61743 | 18115 ft | 392 kts | 263° |
| 2026-05-07 18:26 | -23.62662 | -46.64684 | 18711 ft | 395 kts | 259° |
| 2026-05-07 18:26 | -23.63765 | -46.67446 | 19274 ft | 400 kts | 239° |
| 2026-05-07 18:27 | -23.65302 | -46.69988 | 19925 ft | 399 kts | 239° |
| 2026-05-07 18:27 | -23.66826 | -46.72520 | 20479 ft | 401 kts | 239° |
| 2026-05-07 18:27 | -23.68339 | -46.75084 | 21025 ft | 402 kts | 239° |
| 2026-05-07 18:27 | -23.69336 | -46.76796 | 21380 ft | 403 kts | 240° |
| 2026-05-07 18:28 | -23.71347 | -46.80263 | 22107 ft | 405 kts | 239° |
| 2026-05-07 18:28 | -23.72849 | -46.82830 | 22624 ft | 407 kts | 239° |
| 2026-05-07 18:28 | -23.74383 | -46.85436 | 23151 ft | 408 kts | 239° |
| 2026-05-07 18:28 | -23.75920 | -46.88042 | 23586 ft | 410 kts | 239° |
| 2026-05-07 18:29 | -23.77463 | -46.90662 | 24008 ft | 411 kts | 239° |
| 2026-05-07 18:29 | -23.79011 | -46.93291 | 24418 ft | 412 kts | 239° |
| 2026-05-07 18:29 | -23.80571 | -46.95945 | 24824 ft | 414 kts | 239° |
| 2026-05-07 18:29 | -23.82108 | -46.98562 | 25234 ft | 415 kts | 239° |
| 2026-05-07 18:30 | -23.83665 | -47.01213 | 25724 ft | 414 kts | 239° |
| 2026-05-07 18:30 | -23.85216 | -47.03855 | 26303 ft | 411 kts | 239° |
| 2026-05-07 18:30 | -23.86747 | -47.06468 | 26948 ft | 406 kts | 238° |
| 2026-05-07 18:30 | -23.88262 | -47.09057 | 27549 ft | 403 kts | 238° |
| 2026-05-07 18:31 | -23.89772 | -47.11640 | 27937 ft | 405 kts | 238° |
| 2026-05-07 18:31 | -23.91299 | -47.14250 | 27929 ft | 406 kts | 238° |
| 2026-05-07 18:31 | -23.92819 | -47.16851 | 27944 ft | 404 kts | 238° |
| 2026-05-07 18:31 | -23.94326 | -47.19430 | 27953 ft | 403 kts | 239° |
| 2026-05-07 18:32 | -23.95838 | -47.22019 | 27942 ft | 403 kts | 239° |
| 2026-05-07 18:32 | -23.97348 | -47.24606 | 27935 ft | 405 kts | 238° |
| 2026-05-07 18:32 | -23.98877 | -47.27228 | 27945 ft | 413 kts | 239° |
| 2026-05-07 18:32 | -24.00437 | -47.29906 | 27935 ft | 421 kts | 239° |
| 2026-05-07 18:33 | -24.02023 | -47.32633 | 27946 ft | 428 kts | 238° |
| 2026-05-07 18:33 | -24.03615 | -47.35365 | 27950 ft | 435 kts | 238° |
| 2026-05-07 18:33 | -24.05256 | -47.38181 | 27938 ft | 441 kts | 238° |
| 2026-05-07 18:33 | -24.06918 | -47.41034 | 27939 ft | 446 kts | 239° |
| 2026-05-07 18:34 | -24.08596 | -47.43919 | 27939 ft | 451 kts | 239° |
| 2026-05-07 18:34 | -24.10414 | -47.46741 | 27911 ft | 456 kts | 229° |
| 2026-05-07 18:34 | -24.12841 | -47.49010 | 27936 ft | 464 kts | 216° |
| 2026-05-07 18:34 | -24.15581 | -47.50900 | 27923 ft | 467 kts | 214° |
| 2026-05-07 18:35 | -24.18360 | -47.52755 | 27915 ft | 468 kts | 214° |
| 2026-05-07 18:35 | -24.21116 | -47.54598 | 27909 ft | 470 kts | 214° |
| 2026-05-07 18:35 | -24.23901 | -47.56484 | 27900 ft | 471 kts | 214° |
| 2026-05-07 18:35 | -24.26679 | -47.58390 | 27906 ft | 471 kts | 214° |
| 2026-05-07 18:36 | -24.29460 | -47.60313 | 27906 ft | 472 kts | 215° |
| 2026-05-07 18:36 | -24.32233 | -47.62239 | 27893 ft | 472 kts | 215° |
| 2026-05-07 18:36 | -24.35006 | -47.64168 | 27883 ft | 472 kts | 215° |
| 2026-05-07 18:36 | -24.37779 | -47.66094 | 27896 ft | 472 kts | 215° |
| 2026-05-07 18:37 | -24.40515 | -47.67997 | 27896 ft | 472 kts | 215° |
| 2026-05-07 18:37 | -24.43270 | -47.69957 | 27887 ft | 471 kts | 217° |
| 2026-05-07 18:37 | -24.45928 | -47.72046 | 27887 ft | 470 kts | 219° |